Station Historical Data
Daily Summary for August 22, 2017 Units:  Metric    English   Both
« Previous Day
Next Day »
Daily Weekly Monthly Yearly Custom
  High: Low: Average:
Temperature: 28.1 °C 17.3 °C 23.4 °C
Dew Point: 22.7 °C 13.4 °C 19.6 °C
Humidity: 89% 65% 79%
Wind Speed: 24.1km/h 0km/h 8.2km/h
Wind Gust: 41.8km/h - -
Wind- - SW
Pressure: 1014.8 hPa 1004.3 hPa -
Precipitation: 0 mm    
Historical Graphs
 
 
Tabular Data for August 22, 2017
Time Temperature Dew Point Pressure Wind Wind Speed Wind Gust Humidity Rainfall Rate (Hourly)
00:04 21.4 °C 18.4 °C 1014.8 hPa Calm     83% 0 mm
00:09 21.3 °C 18.3 °C 1014.8 hPa Calm     83% 0 mm
00:14 21.3 °C 18.3 °C 1014.8 hPa Calm     83% 0 mm
00:19 21.3 °C 18.1 °C 1014.8 hPa Calm     82% 0 mm
00:24 21.4 °C 18.4 °C 1014.8 hPa Calm     83% 0 mm
00:29 21.4 °C 18.2 °C 1014.8 hPa Calm     82% 0 mm
00:34 21.4 °C 18.2 °C 1014.8 hPa Calm     82% 0 mm
00:39 21.6 °C 18.3 °C 1014.8 hPa Calm     82% 0 mm
00:44 21.6 °C 18.3 °C 1014.8 hPa Calm     82% 0 mm
00:49 21.6 °C 18.3 °C 1014.8 hPa Calm     82% 0 mm
00:54 21.6 °C 18.3 °C 1014.8 hPa Calm     82% 0 mm
00:59 21.5 °C 18.3 °C 1014.8 hPa Calm     82% 0 mm
01:04 21.5 °C 18.3 °C 1014.8 hPa Calm     82% 0 mm
01:09 21.4 °C 18.2 °C 1014.8 hPa Calm     82% 0 mm
01:14 21.4 °C 18.2 °C 1014.4 hPa Calm     82% 0 mm
01:19 21.4 °C 18.2 °C 1014.4 hPa Calm     82% 0 mm
01:24 21.4 °C 18.2 °C 1014.4 hPa Calm     82% 0 mm
01:29 21.4 °C 18.2 °C 1014.4 hPa Calm     82% 0 mm
01:34 21.4 °C 18.2 °C 1014.4 hPa Calm     82% 0 mm
01:39 21.6 °C 18.3 °C 1014.1 hPa Calm     82% 0 mm
01:44 21.6 °C 18.2 °C 1014.1 hPa Calm     81% 0 mm
01:49 21.7 °C 18.3 °C 1014.1 hPa Calm     81% 0 mm
01:54 21.8 °C 18.6 °C 1013.8 hPa Calm   3.2 km/h 82% 0 mm
01:59 22.1 °C 18.7 °C 1013.8 hPa Calm   6.4 km/h 81% 0 mm
02:04 22.2 °C 18.8 °C 1013.8 hPa South 1.6 km/h 6.4 km/h 81% 0 mm
02:09 22.3 °C 18.8 °C 1013.8 hPa Calm     81% 0 mm
02:14 22.3 °C 18.9 °C 1013.4 hPa Calm   3.2 km/h 81% 0 mm
02:19 22.4 °C 18.9 °C 1013.4 hPa Calm   6.4 km/h 81% 0 mm
02:24 22.5 °C 19.1 °C 1013.4 hPa SSW 1.6 km/h 4.8 km/h 81% 0 mm
02:29 22.6 °C 19.2 °C 1013.4 hPa Calm   3.2 km/h 81% 0 mm
02:34 22.7 °C 19.4 °C 1013.1 hPa Calm   6.4 km/h 82% 0 mm
02:39 22.8 °C 19.6 °C 1013.1 hPa South 1.6 km/h 6.4 km/h 82% 0 mm
02:44 23 °C 19.6 °C 1013.1 hPa South 1.6 km/h 6.4 km/h 81% 0 mm
02:49 23.2 °C 19.8 °C 1013.1 hPa South 1.6 km/h 6.4 km/h 81% 0 mm
02:54 23.4 °C 20 °C 1012.8 hPa SSW 1.6 km/h 6.4 km/h 81% 0 mm
02:59 23.7 °C 20.2 °C 1012.8 hPa SSW 1.6 km/h 8 km/h 81% 0 mm
03:04 23.8 °C 20.2 °C 1012.8 hPa SSW 3.2 km/h 9.7 km/h 80% 0 mm
03:09 24 °C 20.3 °C 1012.4 hPa SSW 4.8 km/h 14.5 km/h 80% 0 mm
03:14 24.2 °C 20.5 °C 1012.4 hPa South 4.8 km/h 11.3 km/h 80% 0 mm
03:19 24.3 °C 20.4 °C 1012.4 hPa SW 6.4 km/h 12.9 km/h 79% 0 mm
03:24 24.3 °C 20.4 °C 1012.4 hPa SSW 8 km/h 11.3 km/h 79% 0 mm
03:29 24.4 °C 20.5 °C 1012.4 hPa SW 3.2 km/h 14.5 km/h 79% 0 mm
03:34 24.4 °C 20.5 °C 1012.1 hPa South 6.4 km/h 11.3 km/h 79% 0 mm
03:39 24.4 °C 20.6 °C 1012.1 hPa South 8 km/h 11.3 km/h 79% 0 mm
03:44 24.4 °C 20.5 °C 1012.1 hPa SSW 6.4 km/h 12.9 km/h 79% 0 mm
03:49 24.4 °C 20.7 °C 1012.1 hPa SSW 4.8 km/h 16.1 km/h 80% 0 mm
03:54 24.3 °C 20.7 °C 1012.1 hPa SSW 6.4 km/h 16.1 km/h 80% 0 mm
03:59 24.3 °C 20.6 °C 1011.7 hPa SSW 4.8 km/h 14.5 km/h 80% 0 mm
04:04 24.3 °C 20.6 °C 1011.7 hPa SSW 6.4 km/h 14.5 km/h 80% 0 mm
04:09 24.3 °C 20.6 °C 1011.7 hPa SSW 6.4 km/h 14.5 km/h 80% 0 mm
04:14 24.2 °C 20.6 °C 1011.4 hPa West 9.7 km/h 16.1 km/h 80% 0 mm
04:19 24.3 °C 20.6 °C 1011.4 hPa SW 8 km/h 16.1 km/h 80% 0 mm
04:24 24.3 °C 20.6 °C 1011.4 hPa SSW 4.8 km/h 14.5 km/h 80% 0 mm
04:29 24.3 °C 20.4 °C 1011.1 hPa South 9.7 km/h 14.5 km/h 79% 0 mm
04:34 24.3 °C 20.4 °C 1011.1 hPa SW 4.8 km/h 16.1 km/h 79% 0 mm
04:39 24.3 °C 20.4 °C 1011.1 hPa South 3.2 km/h 16.1 km/h 79% 0 mm
04:44 24.3 °C 20.4 °C 1011.1 hPa SSE 6.4 km/h 17.7 km/h 79% 0 mm
04:49 24.3 °C 20.4 °C 1011.1 hPa WSW 1.6 km/h 16.1 km/h 79% 0 mm
04:54 24.3 °C 20.4 °C 1011.1 hPa SW 6.4 km/h 16.1 km/h 79% 0 mm
04:59 24.3 °C 20.4 °C 1011.1 hPa SW 4.8 km/h 11.3 km/h 79% 0 mm
05:04 24.3 °C 20.4 °C 1010.7 hPa SSW 4.8 km/h 14.5 km/h 79% 0 mm
05:09 24.3 °C 20.4 °C 1011.1 hPa SSW 11.3 km/h 11.3 km/h 79% 0 mm
05:14 24.3 °C 20.4 °C 1010.7 hPa Calm   19.3 km/h 79% 0 mm
05:19 24.3 °C 20.4 °C 1010.7 hPa South 6.4 km/h 16.1 km/h 79% 0 mm
05:24 24.3 °C 20.2 °C 1010.7 hPa SSW 6.4 km/h 17.7 km/h 78% 0 mm
05:29 24.3 °C 20.4 °C 1010.7 hPa SSW 6.4 km/h 17.7 km/h 79% 0 mm
05:34 24.3 °C 20.4 °C 1010.7 hPa SW 6.4 km/h 12.9 km/h 79% 0 mm
05:39 24.3 °C 20.4 °C 1010.4 hPa SSW 11.3 km/h 17.7 km/h 79% 0 mm
05:44 24.3 °C 20.4 °C 1010.4 hPa SSW 4.8 km/h 12.9 km/h 79% 0 mm
05:49 24.3 °C 20.4 °C 1010.4 hPa SSW 3.2 km/h 14.5 km/h 79% 0 mm
05:54 24.2 °C 20.3 °C 1010.4 hPa WSW 9.7 km/h 17.7 km/h 79% 0 mm
05:59 24.2 °C 20.3 °C 1010.4 hPa SSW 8 km/h 20.9 km/h 79% 0 mm
06:04 24.2 °C 20.3 °C 1010.4 hPa SSW 8 km/h 22.5 km/h 79% 0 mm
06:09 24.3 °C 20.4 °C 1010.4 hPa SSW 9.7 km/h 22.5 km/h 79% 0 mm
06:14 24.3 °C 20.4 °C 1010.4 hPa SW 6.4 km/h 17.7 km/h 79% 0 mm
06:19 24.2 °C 20.3 °C 1010.4 hPa SSW 3.2 km/h 11.3 km/h 79% 0 mm
06:24 24.2 °C 20.3 °C 1010.4 hPa SW 8 km/h 20.9 km/h 79% 0 mm
06:29 24.3 °C 20.2 °C 1010.4 hPa SSW 8 km/h 20.9 km/h 78% 0 mm
06:34 24.3 °C 20.2 °C 1010.4 hPa SW 9.7 km/h 20.9 km/h 78% 0 mm
06:39 24.3 °C 20.2 °C 1010.4 hPa SSW 3.2 km/h 17.7 km/h 78% 0 mm
06:44 24.3 °C 20.2 °C 1010 hPa SW 12.9 km/h 17.7 km/h 78% 0 mm
06:49 24.3 °C 20.2 °C 1010 hPa SSW 6.4 km/h 20.9 km/h 78% 0 mm
06:54 24.4 °C 20.2 °C 1010.4 hPa SSW 4.8 km/h 17.7 km/h 77% 0 mm
06:59 24.4 °C 20.2 °C 1010 hPa SSW 9.7 km/h 22.5 km/h 77% 0 mm
07:04 24.6 °C 20.3 °C 1010 hPa SSW 9.7 km/h 22.5 km/h 77% 0 mm
07:09 24.6 °C 20.3 °C 1010 hPa SSW 8 km/h 19.3 km/h 77% 0 mm
07:14 24.7 °C 20.2 °C 1010 hPa SW 8 km/h 16.1 km/h 76% 0 mm
07:19 24.7 °C 20.2 °C 1010 hPa SW 9.7 km/h 19.3 km/h 76% 0 mm
07:24 24.8 °C 20.3 °C 1010 hPa WSW 6.4 km/h 17.7 km/h 76% 0 mm
07:29 24.9 °C 20.4 °C 1010 hPa SW 9.7 km/h 20.9 km/h 76% 0 mm
07:34 25 °C 20.3 °C 1010 hPa SSW 9.7 km/h 27.4 km/h 75% 0 mm
07:39 25 °C 20.3 °C 1010 hPa South 6.4 km/h 20.9 km/h 75% 0 mm
07:44 25.1 °C 20.4 °C 1010 hPa SW 8 km/h 22.5 km/h 75% 0 mm
07:49 25.1 °C 20.4 °C 1010 hPa South 6.4 km/h 22.5 km/h 75% 0 mm
07:54 25.2 °C 20.3 °C 1010 hPa WSW 11.3 km/h 19.3 km/h 74% 0 mm
07:59 25.3 °C 20.4 °C 1009.7 hPa SSW 9.7 km/h 24.1 km/h 74% 0 mm
08:04 25.4 °C 20.2 °C 1009.7 hPa SSW 9.7 km/h 24.1 km/h 73% 0 mm
08:09 25.7 °C 20.4 °C 1009.7 hPa SSW 9.7 km/h 20.9 km/h 73% 0 mm
08:14 25.8 °C 20.4 °C 1009.4 hPa SSW 8 km/h 20.9 km/h 72% 0 mm
08:19 26 °C 20.6 °C 1009.4 hPa SSW 9.7 km/h 19.3 km/h 72% 0 mm
08:24 26.2 °C 20.5 °C 1009.4 hPa SW 11.3 km/h 19.3 km/h 71% 0 mm
08:29 26.1 °C 20.4 °C 1009.4 hPa SSW 8 km/h 20.9 km/h 71% 0 mm
08:34 25.9 °C 20.3 °C 1009 hPa SSW 9.7 km/h 20.9 km/h 71% 0 mm
08:39 26.1 °C 20.4 °C 1009 hPa SSW 9.7 km/h 20.9 km/h 71% 0 mm
08:44 26.3 °C 20.4 °C 1009 hPa SW 20.9 km/h 24.1 km/h 70% 0 mm
08:49 26.5 °C 20.6 °C 1009 hPa SSE 11.3 km/h 22.5 km/h 70% 0 mm
08:54 26.8 °C 20.6 °C 1008.7 hPa SW 8 km/h 22.5 km/h 69% 0 mm
08:59 26.8 °C 20.4 °C 1008.7 hPa SSW 9.7 km/h 22.5 km/h 68% 0 mm
09:04 26.9 °C 20.6 °C 1008.7 hPa SSE 20.9 km/h 27.4 km/h 68% 0 mm
09:09 27.1 °C 20.9 °C 1008.7 hPa WSW 8 km/h 25.7 km/h 69% 0 mm
09:14 27.1 °C 20.7 °C 1008.7 hPa South 11.3 km/h 29 km/h 68% 0 mm
09:19 27.1 °C 20.7 °C 1008.7 hPa SSW 12.9 km/h 25.7 km/h 68% 0 mm
09:24 27.1 °C 20.9 °C 1008.7 hPa WSW 11.3 km/h 30.6 km/h 69% 0 mm
09:29 27.1 °C 20.7 °C 1008.4 hPa SSW 14.5 km/h 30.6 km/h 68% 0 mm
09:34 27 °C 20.6 °C 1008.4 hPa SSW 12.9 km/h 27.4 km/h 68% 0 mm
09:39 27.2 °C 21.1 °C 1008.4 hPa SW 11.3 km/h 27.4 km/h 69% 0 mm
09:44 27.4 °C 20.8 °C 1008.4 hPa SW 11.3 km/h 27.4 km/h 67% 0 mm
09:49 27.5 °C 20.8 °C 1008.4 hPa WSW 9.7 km/h 24.1 km/h 67% 0 mm
09:54 27.8 °C 21.1 °C 1008.4 hPa SW 9.7 km/h 22.5 km/h 67% 0 mm
09:59 27.8 °C 20.9 °C 1008 hPa SSW 6.4 km/h 27.4 km/h 66% 0 mm
10:04 27.8 °C 20.9 °C 1008 hPa SSW 12.9 km/h 27.4 km/h 66% 0 mm
10:09 27.9 °C 20.9 °C 1008 hPa South 9.7 km/h 27.4 km/h 66% 0 mm
10:14 27.9 °C 21.2 °C 1008 hPa WSW 6.4 km/h 19.3 km/h 67% 0 mm
10:19 28.1 °C 20.9 °C 1008 hPa South 9.7 km/h 24.1 km/h 65% 0 mm
10:24 28.1 °C 20.8 °C 1008 hPa SSW 12.9 km/h 30.6 km/h 65% 0 mm
10:29 27.7 °C 20.6 °C 1008 hPa SW 14.5 km/h 33.8 km/h 65% 0 mm
10:34 27.6 °C 20.7 °C 1008 hPa SW 14.5 km/h 33.8 km/h 66% 0 mm
10:39 27.7 °C 20.7 °C 1008 hPa SW 14.5 km/h 29 km/h 66% 0 mm
10:44 27.6 °C 20.7 °C 1008 hPa SW 14.5 km/h 33.8 km/h 66% 0 mm
10:49 27.7 °C 20.7 °C 1008 hPa WNW 11.3 km/h 24.1 km/h 66% 0 mm
10:54 27.9 °C 21.2 °C 1008 hPa SW 17.7 km/h 22.5 km/h 67% 0 mm
10:59 27.9 °C 20.8 °C 1008 hPa SW 11.3 km/h 24.1 km/h 65% 0 mm
11:04 27.9 °C 20.7 °C 1008 hPa SW 12.9 km/h 25.7 km/h 65% 0 mm
11:09 27.7 °C 20.8 °C 1007.7 hPa SW 14.5 km/h 41.8 km/h 66% 0 mm
11:14 27.6 °C 20.9 °C 1007.7 hPa WSW 8 km/h 22.5 km/h 67% 0 mm
11:19 27.4 °C 20.8 °C 1007.7 hPa WSW 14.5 km/h 30.6 km/h 67% 0 mm
11:24 27.3 °C 20.7 °C 1007.7 hPa WSW 16.1 km/h 22.5 km/h 67% 0 mm
11:29 27.6 °C 20.9 °C 1007.7 hPa WSW 14.5 km/h 30.6 km/h 67% 0 mm
11:34 27.7 °C 20.7 °C 1007.7 hPa SW 12.9 km/h 30.6 km/h 66% 0 mm
11:39 27.5 °C 20.8 °C 1007.7 hPa SSW 12.9 km/h 32.2 km/h 67% 0 mm
11:44 27.2 °C 20.8 °C 1007.7 hPa WNW 24.1 km/h 25.7 km/h 68% 0 mm
11:49 26.8 °C 20.9 °C 1007.7 hPa WNW 24.1 km/h 37 km/h 70% 0 mm
11:54 26.2 °C 20.7 °C 1007.3 hPa SW 9.7 km/h 30.6 km/h 72% 0 mm
11:59 25.9 °C 20.7 °C 1007.3 hPa SSW 9.7 km/h 25.7 km/h 73% 0 mm
12:04 25.5 °C 20.7 °C 1007.3 hPa WSW 14.5 km/h 29 km/h 75% 0.51 mm
12:09 25 °C 20.9 °C 1007 hPa WSW 12.9 km/h 29 km/h 78% 0.51 mm
12:14 24.9 °C 21.1 °C 1007 hPa WSW 11.3 km/h 25.7 km/h 79% 0.51 mm
12:19 24.8 °C 21.2 °C 1007 hPa West 14.5 km/h 30.6 km/h 80% 0.51 mm
12:24 24.6 °C 20.7 °C 1007 hPa SSW 9.7 km/h 29 km/h 79% 0.51 mm
12:29 24.3 °C 20.4 °C 1007 hPa WSW 12.9 km/h 29 km/h 79% 0.76 mm
12:34 24.1 °C 20.7 °C 1007 hPa West 11.3 km/h 32.2 km/h 81% 0.76 mm
12:39 24.2 °C 20.7 °C 1007 hPa WSW 8 km/h 24.1 km/h 81% 0.76 mm
12:44 24.2 °C 20.9 °C 1007 hPa WSW 12.9 km/h 25.7 km/h 82% 1.02 mm
12:49 24.2 °C 21.3 °C 1007 hPa SW 11.3 km/h 20.9 km/h 84% 1.02 mm
12:54 24.3 °C 21.7 °C 1007 hPa WSW 4.8 km/h 17.7 km/h 85% 1.02 mm
12:59 24.7 °C 22.2 °C 1006.7 hPa SSE 9.7 km/h 17.7 km/h 86% 1.02 mm
13:04 24.8 °C 22.1 °C 1006.7 hPa SW 11.3 km/h 32.2 km/h 85% 0.51 mm
13:09 25.4 °C 22.7 °C 1006.7 hPa SW 12.9 km/h 32.2 km/h 85% 0.51 mm
13:14 25.1 °C 21.8 °C 1006.3 hPa SW 12.9 km/h 30.6 km/h 82% 0.51 mm
13:19 24.8 °C 21.5 °C 1006.3 hPa SW 12.9 km/h 30.6 km/h 82% 0.51 mm
13:24 25.2 °C 21.9 °C 1006.3 hPa SW 12.9 km/h 29 km/h 82% 0.51 mm
13:29 25.9 °C 22.4 °C 1006.3 hPa South 11.3 km/h 22.5 km/h 81% 0.25 mm
13:34 26.1 °C 22 °C 1006.3 hPa SW 14.5 km/h 29 km/h 78% 0.25 mm
13:39 26 °C 21.9 °C 1006 hPa SSW 6.4 km/h 30.6 km/h 78% 0.25 mm
13:44 25.4 °C 21.3 °C 1006 hPa SW 9.7 km/h 29 km/h 78% 0 mm
13:49 25 °C 21.1 °C 1006 hPa SW 14.5 km/h 22.5 km/h 79% 0 mm
13:54 24.7 °C 21 °C 1005.6 hPa SW 16.1 km/h 30.6 km/h 80% 0 mm
13:59 24.3 °C 21.1 °C 1006 hPa SW 6.4 km/h 25.7 km/h 82% 1.27 mm
14:04 23.8 °C 21.2 °C 1005.6 hPa SW 6.4 km/h 16.1 km/h 85% 1.52 mm
14:09 23.6 °C 21.1 °C 1005.3 hPa SW 9.7 km/h 20.9 km/h 86% 1.52 mm
14:14 23.5 °C 21.2 °C 1005.3 hPa SW 9.7 km/h 20.9 km/h 87% 1.52 mm
14:19 23.8 °C 21.9 °C 1005.3 hPa SW 8 km/h 20.9 km/h 89% 1.52 mm
14:24 23.9 °C 21.8 °C 1005 hPa SW 8 km/h 19.3 km/h 88% 1.52 mm
14:29 24.1 °C 22 °C 1005 hPa WSW 9.7 km/h 17.7 km/h 88% 1.52 mm
14:34 24.1 °C 21.8 °C 1005 hPa WSW 4.8 km/h 17.7 km/h 87% 1.52 mm
14:39 24 °C 21.5 °C 1005 hPa SW 9.7 km/h 19.3 km/h 86% 1.52 mm
14:44 23.8 °C 21.6 °C 1005 hPa WSW 11.3 km/h 16.1 km/h 87% 1.52 mm
14:49 23.9 °C 21.6 °C 1005 hPa SW 12.9 km/h 20.9 km/h 87% 1.52 mm
14:54 24 °C 21.7 °C 1005 hPa SW 16.1 km/h 22.5 km/h 87% 1.52 mm
14:59 24.2 °C 21.9 °C 1004.6 hPa WSW 8 km/h 19.3 km/h 87% 0.25 mm
15:04 24.2 °C 21.7 °C 1004.6 hPa SW 1.6 km/h 17.7 km/h 86% 0 mm
15:09 24.1 °C 21.6 °C 1004.6 hPa SW 9.7 km/h 29 km/h 86% 0 mm
15:14 23.8 °C 21.2 °C 1004.6 hPa WSW 12.9 km/h 29 km/h 85% 0 mm
15:19 23.8 °C 20.9 °C 1004.6 hPa WSW 14.5 km/h 29 km/h 84% 0 mm
15:24 23.8 °C 21.1 °C 1004.6 hPa SW 12.9 km/h 29 km/h 85% 0 mm
15:29 23.8 °C 21.1 °C 1004.3 hPa WSW 14.5 km/h 17.7 km/h 85% 0 mm
15:34 23.9 °C 21.4 °C 1004.6 hPa SSW 4.8 km/h 20.9 km/h 86% 0 mm
15:39 24.3 °C 21.4 °C 1004.6 hPa WSW 11.3 km/h 22.5 km/h 84% 0 mm
15:44 24.4 °C 21.6 °C 1004.6 hPa SW 11.3 km/h 22.5 km/h 84% 0 mm
15:49 24.5 °C 21.4 °C 1004.6 hPa SW 12.9 km/h 27.4 km/h 83% 0 mm
15:54 24.5 °C 21 °C 1004.6 hPa SW 17.7 km/h 30.6 km/h 81% 0 mm
15:59 24.6 °C 21.1 °C 1004.6 hPa NW 19.3 km/h 27.4 km/h 81% 0 mm
16:04 24.4 °C 20.7 °C 1004.6 hPa West 11.3 km/h 27.4 km/h 80% 0 mm
16:09 24.2 °C 20.6 °C 1004.6 hPa WSW 14.5 km/h 27.4 km/h 80% 0 mm
16:14 24.2 °C 20.7 °C 1004.6 hPa WSW 12.9 km/h 25.7 km/h 81% 0 mm
16:19 24.1 °C 20.4 °C 1005 hPa WSW 8 km/h 24.1 km/h 80% 0 mm
16:24 24.1 °C 20.4 °C 1004.6 hPa West 11.3 km/h 27.4 km/h 80% 0 mm
16:29 24.1 °C 20.6 °C 1004.6 hPa SW 8 km/h 25.7 km/h 81% 0 mm
16:34 23.9 °C 20.5 °C 1004.6 hPa WSW 8 km/h 20.9 km/h 81% 0 mm
16:39 23.9 °C 20.4 °C 1004.6 hPa WSW 11.3 km/h 24.1 km/h 81% 0 mm
16:44 24.1 °C 20.6 °C 1004.6 hPa WSW 11.3 km/h 24.1 km/h 81% 0 mm
16:49 24.2 °C 20.6 °C 1004.6 hPa WSW 11.3 km/h 25.7 km/h 80% 0 mm
16:54 24.2 °C 20.3 °C 1004.3 hPa WSW 12.9 km/h 32.2 km/h 79% 0 mm
16:59 24.1 °C 20.4 °C 1004.3 hPa SW 9.7 km/h 24.1 km/h 80% 0 mm
17:04 23.9 °C 20.3 °C 1004.3 hPa SW 14.5 km/h 27.4 km/h 80% 0 mm
17:09 23.9 °C 20.3 °C 1004.3 hPa WSW 11.3 km/h 27.4 km/h 80% 0 mm
17:14 24 °C 20.3 °C 1004.6 hPa WSW 14.5 km/h 29 km/h 80% 0 mm
17:19 24.1 °C 20.4 °C 1004.6 hPa WSW 14.5 km/h 29 km/h 80% 0 mm
17:24 24.2 °C 20.5 °C 1004.6 hPa SW 12.9 km/h 25.7 km/h 80% 0 mm
17:29 24.1 °C 20.4 °C 1004.6 hPa SW 9.7 km/h 32.2 km/h 80% 0 mm
17:34 24.1 °C 20.4 °C 1004.3 hPa WSW 16.1 km/h 24.1 km/h 80% 0 mm
17:39 24.1 °C 20.4 °C 1004.6 hPa SSW 12.9 km/h 29 km/h 80% 0 mm
17:44 24 °C 20.3 °C 1004.3 hPa WSW 11.3 km/h 24.1 km/h 80% 0 mm
17:49 23.9 °C 20.2 °C 1004.3 hPa SW 14.5 km/h 29 km/h 80% 0 mm
17:54 23.9 °C 20.4 °C 1004.6 hPa SW 14.5 km/h 29 km/h 81% 0 mm
17:59 23.9 °C 20.4 °C 1004.6 hPa SW 12.9 km/h 29 km/h 81% 0 mm
18:04 23.9 °C 20.5 °C 1004.6 hPa SW 12.9 km/h 29 km/h 81% 0 mm
18:09 24.1 °C 20.4 °C 1004.6 hPa WSW 12.9 km/h 29 km/h 80% 0 mm
18:14 24.1 °C 20.4 °C 1004.3 hPa SW 12.9 km/h 25.7 km/h 80% 0 mm
18:19 24.2 °C 20.5 °C 1004.6 hPa WSW 12.9 km/h 25.7 km/h 80% 0 mm
18:24 24 °C 20.3 °C 1004.6 hPa SSW 8 km/h 25.7 km/h 80% 0 mm
18:29 23.9 °C 20.3 °C 1004.6 hPa NW 6.4 km/h 24.1 km/h 80% 0 mm
18:34 23.9 °C 20.2 °C 1004.6 hPa WSW 12.9 km/h 27.4 km/h 80% 0 mm
18:39 23.7 °C 20.3 °C 1004.6 hPa WSW 20.9 km/h 29 km/h 81% 0 mm
18:44 23.7 °C 20.2 °C 1004.6 hPa WSW 12.9 km/h 25.7 km/h 81% 0 mm
18:49 23.6 °C 20.1 °C 1004.6 hPa WSW 14.5 km/h 30.6 km/h 81% 0 mm
18:54 23.6 °C 20.1 °C 1004.6 hPa WSW 14.5 km/h 33.8 km/h 81% 0 mm
18:59 23.5 °C 20.1 °C 1004.3 hPa SW 16.1 km/h 37 km/h 81% 0 mm
19:04 23.4 °C 20 °C 1004.6 hPa SW 16.1 km/h 37 km/h 81% 0 mm
19:09 22.4 °C 18.6 °C 1005 hPa WSW 17.7 km/h 37 km/h 79% 5.84 mm
19:14 21.2 °C 18.2 °C 1005.3 hPa West 16.1 km/h 37 km/h 83% 7.11 mm
19:19 20.6 °C 17.9 °C 1005.3 hPa WSW 11.3 km/h 25.7 km/h 85% 7.62 mm
19:24 20.2 °C 17.8 °C 1005.3 hPa WNW 8 km/h 20.9 km/h 86% 8.38 mm
19:29 19.9 °C 17.7 °C 1005.6 hPa SW 11.3 km/h 20.9 km/h 87% 9.4 mm
19:34 19.9 °C 17.8 °C 1005.3 hPa WSW 11.3 km/h 17.7 km/h 88% 10.41 mm
19:39 19.8 °C 17.8 °C 1005.3 hPa WSW 17.7 km/h 20.9 km/h 88% 10.67 mm
19:44 19.8 °C 17.9 °C 1005.3 hPa SW 8 km/h 20.9 km/h 89% 11.43 mm
19:49 19.8 °C 17.9 °C 1005.3 hPa WSW 8 km/h 20.9 km/h 89% 11.94 mm
19:54 19.8 °C 17.9 °C 1005.3 hPa WSW 6.4 km/h 12.9 km/h 89% 11.94 mm
19:59 19.8 °C 17.9 °C 1005.3 hPa WSW 6.4 km/h 12.9 km/h 89% 11.94 mm
20:04 19.8 °C 17.9 °C 1005.6 hPa SW 6.4 km/h 12.9 km/h 89% 11.94 mm
20:09 19.8 °C 17.9 °C 1005.6 hPa SW 6.4 km/h 11.3 km/h 89% 6.1 mm
20:14 19.8 °C 17.9 °C 1005.6 hPa WSW 4.8 km/h 12.9 km/h 89% 4.83 mm
20:19 19.8 °C 17.9 °C 1005.6 hPa WSW 3.2 km/h 11.3 km/h 89% 4.32 mm
20:24 19.7 °C 17.8 °C 1006 hPa SW 3.2 km/h 9.7 km/h 89% 3.56 mm
20:29 19.7 °C 17.8 °C 1005.6 hPa SW 6.4 km/h 11.3 km/h 89% 2.54 mm
20:34 19.7 °C 17.8 °C 1006 hPa WSW 8 km/h 12.9 km/h 89% 1.52 mm
20:39 19.8 °C 17.9 °C 1006 hPa WSW 3.2 km/h 9.7 km/h 89% 1.27 mm
20:44 19.8 °C 17.9 °C 1006.3 hPa West 4.8 km/h 11.3 km/h 89% 0.51 mm
20:49 19.8 °C 17.9 °C 1006.3 hPa West 3.2 km/h 12.9 km/h 89% 0 mm
20:54 19.9 °C 18 °C 1006.3 hPa West 4.8 km/h 12.9 km/h 89% 0 mm
20:59 20 °C 18.1 °C 1006.3 hPa West 6.4 km/h 16.1 km/h 89% 0 mm
21:04 20 °C 18.1 °C 1006.3 hPa West 6.4 km/h 16.1 km/h 89% 0 mm
21:09 20.1 °C 18.2 °C 1006.3 hPa West 8 km/h 16.1 km/h 89% 0 mm
21:14 20.1 °C 18 °C 1006.3 hPa WNW 6.4 km/h 12.9 km/h 88% 0 mm
21:19 20.1 °C 18.1 °C 1006.3 hPa WNW 6.4 km/h 12.9 km/h 88% 0 mm
21:24 20.1 °C 18.1 °C 1006.3 hPa WNW 6.4 km/h 12.9 km/h 88% 0 mm
21:29 20.1 °C 18.1 °C 1006.3 hPa WNW 6.4 km/h 14.5 km/h 88% 0 mm
21:34 20.1 °C 18 °C 1006.7 hPa WNW 9.7 km/h 11.3 km/h 88% 0 mm
21:39 20 °C 17.9 °C 1006.7 hPa West 6.4 km/h 12.9 km/h 88% 0 mm
21:44 19.9 °C 17.8 °C 1006.7 hPa WNW 4.8 km/h 16.1 km/h 88% 0 mm
21:49 19.8 °C 17.6 °C 1006.7 hPa NW 3.2 km/h 16.1 km/h 87% 0 mm
21:54 19.6 °C 17.4 °C 1007 hPa NW 1.6 km/h 20.9 km/h 87% 0 mm
21:59 19.4 °C 17 °C 1007 hPa NW 9.7 km/h 22.5 km/h 86% 0 mm
22:04 19.2 °C 16.4 °C 1007.3 hPa NW 9.7 km/h 22.5 km/h 84% 0 mm
22:09 19.1 °C 16.1 °C 1007.3 hPa NW 9.7 km/h 19.3 km/h 83% 0 mm
22:14 18.9 °C 15.6 °C 1007.3 hPa NW 8 km/h 19.3 km/h 81% 0 mm
22:19 18.8 °C 15.3 °C 1007.7 hPa NW 8 km/h 20.9 km/h 80% 0 mm
22:24 18.7 °C 15 °C 1007.7 hPa NW 6.4 km/h 20.9 km/h 79% 0 mm
22:29 18.7 °C 14.8 °C 1007.7 hPa NW 1.6 km/h 16.1 km/h 78% 0 mm
22:34 18.6 °C 14.7 °C 1007.7 hPa WNW 6.4 km/h 12.9 km/h 78% 0 mm
22:39 18.6 °C 14.4 °C 1007.7 hPa WNW 1.6 km/h 16.1 km/h 77% 0 mm
22:44 18.6 °C 14.4 °C 1007.7 hPa West 6.4 km/h 12.9 km/h 77% 0 mm
22:49 18.6 °C 14.4 °C 1007.7 hPa NW 3.2 km/h 12.9 km/h 77% 0 mm
22:54 18.5 °C 14.2 °C 1008 hPa Calm   11.3 km/h 76% 0 mm
22:59 18.4 °C 14.1 °C 1007.7 hPa WNW 4.8 km/h 12.9 km/h 76% 0 mm
23:04 18.3 °C 13.8 °C 1008 hPa WNW 4.8 km/h 12.9 km/h 75% 0 mm
23:09 18.2 °C 13.7 °C 1007.7 hPa WNW 4.8 km/h 12.9 km/h 75% 0 mm
23:14 18.1 °C 13.6 °C 1007.7 hPa WNW 3.2 km/h 11.3 km/h 75% 0 mm
23:19 17.9 °C 13.6 °C 1007.7 hPa Calm   6.4 km/h 76% 0 mm
23:24 17.7 °C 13.4 °C 1008 hPa Calm     76% 0 mm
23:29 17.7 °C 13.6 °C 1008 hPa Calm   4.8 km/h 77% 0 mm
23:34 17.6 °C 13.7 °C 1008 hPa Calm   4.8 km/h 78% 0 mm
23:39 17.4 °C 13.7 °C 1008.4 hPa Calm     79% 0 mm
23:44 17.3 °C 13.4 °C 1008.4 hPa Calm     78% 0 mm
23:49 17.4 °C 13.5 °C 1008.4 hPa Calm     78% 0 mm
23:54 17.4 °C 13.6 °C 1008.4 hPa Calm     78% 0 mm
23:59 17.3 °C 13.4 °C 1008.4 hPa Calm     78% 0 mm
Buffalo, New York, USA
Compliments of Weather Underground - 2.75 mb